createdAt,value
2024-03-26T00:00:27.836Z,0.0000
2024-03-26T00:01:29.052Z,0.0000
2024-03-26T00:02:30.338Z,0.0000
2024-03-26T00:03:31.531Z,0.0000
2024-03-26T00:04:32.893Z,0.0000
2024-03-26T00:05:34.123Z,0.0000
2024-03-26T00:06:35.468Z,0.0000
2024-03-26T00:07:36.717Z,0.0000
2024-03-26T00:08:37.947Z,0.0000
2024-03-26T00:09:39.150Z,0.0000
2024-03-26T00:10:40.380Z,0.0000
2024-03-26T00:11:41.775Z,0.0000
2024-03-26T00:12:43.135Z,0.0000
2024-03-26T00:13:44.300Z,0.0000
2024-03-26T00:14:45.505Z,0.0000
2024-03-26T00:15:46.817Z,0.0000
2024-03-26T00:16:47.981Z,0.0000
2024-03-26T00:17:49.364Z,0.0000
2024-03-26T00:18:50.548Z,0.0000
2024-03-26T00:19:51.936Z,0.0000
2024-03-26T00:20:53.118Z,0.0000
2024-03-26T00:21:54.468Z,0.0000
2024-03-26T00:22:55.657Z,0.0000
2024-03-26T00:23:56.915Z,0.0000
2024-03-26T00:24:58.166Z,0.0000
2024-03-26T00:25:59.356Z,0.0000
2024-03-26T00:27:00.683Z,0.0000
2024-03-26T00:28:01.844Z,0.0000
2024-03-26T00:29:03.149Z,0.0000
2024-03-26T00:30:04.346Z,0.0000
2024-03-26T00:31:05.530Z,0.0000
2024-03-26T00:32:06.721Z,0.0000
2024-03-26T00:33:07.892Z,0.0000
2024-03-26T00:34:09.223Z,0.0000
2024-03-26T00:35:10.468Z,0.0000
2024-03-26T00:36:11.786Z,0.0000
2024-03-26T00:37:13.201Z,0.0000
2024-03-26T00:38:14.373Z,0.0000
2024-03-26T00:39:15.574Z,0.0000
2024-03-26T00:40:16.974Z,0.0000
2024-03-26T00:41:18.345Z,0.0000
2024-03-26T00:42:19.821Z,0.0000
2024-03-26T00:43:21.311Z,0.0000
2024-03-26T00:44:22.673Z,0.0000
2024-03-26T00:45:24.094Z,0.0000
2024-03-26T00:46:25.550Z,0.0000
2024-03-26T00:47:26.774Z,0.0000
2024-03-26T00:48:28.111Z,0.0000
2024-03-26T00:49:29.274Z,0.0000
2024-03-26T00:50:30.816Z,0.0000
2024-03-26T00:51:32.082Z,0.0000
2024-03-26T00:52:33.280Z,0.0000
2024-03-26T00:53:34.488Z,0.0000
2024-03-26T00:54:35.780Z,0.0000
2024-03-26T00:55:36.960Z,0.0000
2024-03-26T00:56:38.366Z,0.0000
2024-03-26T00:57:39.566Z,0.0000
2024-03-26T00:58:41.220Z,0.0000
2024-03-26T00:59:42.660Z,0.0000
2024-03-26T01:00:43.817Z,0.0000
2024-03-26T01:01:45.198Z,0.0000
2024-03-26T01:02:46.418Z,0.0000
2024-03-26T01:03:47.774Z,0.0000
2024-03-26T01:04:49.202Z,0.0000
2024-03-26T01:05:50.378Z,0.0000
2024-03-26T01:06:51.739Z,0.0000
2024-03-26T01:07:52.958Z,0.0000
2024-03-26T01:08:54.353Z,0.0000
2024-03-26T01:09:55.542Z,0.0000
2024-03-26T01:10:56.905Z,0.0000
2024-03-26T01:11:58.091Z,0.0000
2024-03-26T01:12:59.415Z,0.0000
2024-03-26T01:14:00.599Z,0.0000
2024-03-26T01:15:01.746Z,0.0000
2024-03-26T01:16:03.001Z,0.0000
2024-03-26T01:17:04.263Z,0.0000
2024-03-26T01:18:05.550Z,0.0000
2024-03-26T01:19:06.725Z,0.0000
2024-03-26T01:20:07.945Z,0.0000
2024-03-26T01:21:09.128Z,0.0000
2024-03-26T01:22:10.500Z,0.0000
2024-03-26T01:23:11.682Z,0.0000
2024-03-26T01:24:13.059Z,0.0000
2024-03-26T01:25:14.261Z,0.0000
2024-03-26T01:26:15.692Z,0.0000
2024-03-26T01:27:17.046Z,0.0000
2024-03-26T01:28:18.269Z,0.0000
2024-03-26T01:29:19.630Z,0.0000
2024-03-26T01:30:20.840Z,0.0000
2024-03-26T01:31:22.175Z,0.0000
2024-03-26T01:32:23.399Z,0.0000
2024-03-26T01:33:24.766Z,0.0000
2024-03-26T01:34:25.931Z,0.0000
2024-03-26T01:35:27.288Z,0.0000
2024-03-26T01:36:28.490Z,0.0000
2024-03-26T01:37:29.890Z,0.0000
2024-03-26T01:38:31.138Z,0.0000
2024-03-26T01:39:32.399Z,0.0000
2024-03-26T01:40:33.770Z,0.0000
2024-03-26T01:41:34.980Z,0.0000
2024-03-26T01:42:36.149Z,0.0000
2024-03-26T01:43:37.530Z,0.0000
2024-03-26T01:44:38.740Z,0.0000
2024-03-26T01:45:40.022Z,0.0000
2024-03-26T01:46:41.301Z,0.0000
2024-03-26T01:47:42.499Z,0.0000
2024-03-26T01:48:43.751Z,0.0000
2024-03-26T01:49:44.930Z,0.0000
2024-03-26T01:50:46.140Z,0.0000
2024-03-26T01:51:47.449Z,0.0000
2024-03-26T01:52:48.678Z,0.0000
2024-03-26T01:53:50.022Z,0.0000
2024-03-26T01:54:51.228Z,0.0000
2024-03-26T01:55:52.577Z,0.0000
2024-03-26T01:56:53.853Z,0.0000
2024-03-26T01:57:55.156Z,0.0000
2024-03-26T01:58:56.322Z,0.0000
2024-03-26T01:59:57.716Z,0.0000
2024-03-26T02:00:58.920Z,0.0000
2024-03-26T02:02:00.255Z,0.0000
2024-03-26T02:03:01.500Z,0.0000
2024-03-26T02:04:02.822Z,0.0000
2024-03-26T02:05:04.254Z,0.0000
2024-03-26T02:06:05.693Z,0.0000
2024-03-26T02:07:06.880Z,0.0000
2024-03-26T02:08:08.250Z,0.0000
2024-03-26T02:09:09.717Z,0.0000
2024-03-26T02:10:10.879Z,0.0000
2024-03-26T02:11:12.133Z,0.0000
2024-03-26T02:12:13.373Z,0.0000
2024-03-26T02:13:14.617Z,0.0000
2024-03-26T02:14:15.945Z,0.0000
2024-03-26T02:15:17.148Z,0.0000
2024-03-26T02:16:18.505Z,0.0000
2024-03-26T02:17:19.936Z,0.0000
2024-03-26T02:18:21.108Z,0.0000
2024-03-26T02:19:22.499Z,0.0000
2024-03-26T02:20:23.737Z,0.0000
2024-03-26T02:21:24.990Z,0.0000
2024-03-26T02:22:26.183Z,0.0000
2024-03-26T02:23:27.371Z,0.0000
2024-03-26T02:24:28.622Z,0.0000
2024-03-26T02:25:29.974Z,0.0000
2024-03-26T02:26:31.128Z,0.0000
2024-03-26T02:27:32.419Z,0.0000
2024-03-26T02:28:33.621Z,0.0000
2024-03-26T02:29:34.982Z,0.0000
2024-03-26T02:30:36.411Z,0.0000
2024-03-26T02:31:37.619Z,0.0000
2024-03-26T02:32:38.974Z,0.0000
2024-03-26T02:33:40.286Z,0.0000
2024-03-26T02:34:41.526Z,0.0000
2024-03-26T02:35:42.892Z,0.0000
2024-03-26T02:36:44.086Z,0.0000
2024-03-26T02:37:45.326Z,0.0000
2024-03-26T02:38:46.840Z,0.0000
2024-03-26T02:39:48.098Z,0.0000
2024-03-26T02:40:49.522Z,0.0000
2024-03-26T02:41:50.731Z,0.0000
2024-03-26T02:42:51.929Z,0.0000
2024-03-26T02:43:53.226Z,0.0000
2024-03-26T02:44:54.659Z,0.0000
2024-03-26T02:45:55.872Z,0.0000
2024-03-26T02:46:57.126Z,0.0000
2024-03-26T02:47:58.336Z,0.0000
2024-03-26T02:48:59.533Z,0.0000
2024-03-26T02:50:00.894Z,0.0000
2024-03-26T02:51:02.104Z,0.0000
2024-03-26T02:52:03.476Z,0.0000
2024-03-26T02:53:04.643Z,0.0000
2024-03-26T02:54:05.830Z,0.0000
2024-03-26T02:55:07.151Z,0.0000
2024-03-26T02:56:08.396Z,0.0000
2024-03-26T02:57:09.614Z,0.0000
2024-03-26T02:58:10.816Z,0.0000
2024-03-26T02:59:12.012Z,0.0000
2024-03-26T03:00:13.219Z,0.0000
2024-03-26T03:01:14.496Z,0.0000
2024-03-26T03:02:15.732Z,0.0000
2024-03-26T03:03:16.914Z,0.0000
2024-03-26T03:04:18.180Z,0.0000
2024-03-26T03:05:19.385Z,0.0000
2024-03-26T03:06:20.738Z,0.0000
2024-03-26T03:07:21.895Z,0.0000
2024-03-26T03:08:23.366Z,0.0000
2024-03-26T03:09:24.738Z,0.0000
2024-03-26T03:10:25.980Z,0.0000
2024-03-26T03:11:27.331Z,0.0000
2024-03-26T03:12:28.531Z,0.0000
2024-03-26T03:13:29.839Z,0.0000
2024-03-26T03:14:31.061Z,0.0000
2024-03-26T03:15:32.270Z,0.0000
2024-03-26T03:16:33.688Z,0.0000
2024-03-26T03:17:34.989Z,0.0000
2024-03-26T03:18:36.171Z,0.0000
2024-03-26T03:19:37.521Z,0.0000
2024-03-26T03:20:39.016Z,0.0000
2024-03-26T03:21:40.197Z,0.0000
2024-03-26T03:22:41.529Z,0.0000
2024-03-26T03:23:42.711Z,0.0000
2024-03-26T03:24:43.919Z,0.0000
2024-03-26T03:25:45.281Z,0.0000
2024-03-26T03:26:46.492Z,0.0000
2024-03-26T03:27:47.775Z,0.0000
2024-03-26T03:28:49.027Z,0.0000
2024-03-26T03:29:50.317Z,0.0000
2024-03-26T03:30:51.540Z,0.0000
2024-03-26T03:31:52.893Z,0.0000
2024-03-26T03:32:54.074Z,0.0000
2024-03-26T03:33:55.540Z,0.0000
2024-03-26T03:34:56.722Z,0.0000
2024-03-26T03:35:58.036Z,0.0000
2024-03-26T03:36:59.294Z,0.0000
2024-03-26T03:38:00.573Z,0.0000
2024-03-26T03:39:02.016Z,0.0000
2024-03-26T03:40:03.461Z,0.0000
2024-03-26T03:41:04.915Z,0.0000
2024-03-26T03:42:06.422Z,0.0000
2024-03-26T03:43:07.787Z,0.0000
2024-03-26T03:44:08.965Z,0.0000
2024-03-26T03:45:10.339Z,0.0000
2024-03-26T03:46:11.803Z,0.0000
2024-03-26T03:47:13.218Z,0.0000
2024-03-26T03:48:14.471Z,0.0000
2024-03-26T03:49:15.795Z,0.0000
2024-03-26T03:50:17.206Z,0.0000
2024-03-26T03:51:18.688Z,0.0000
2024-03-26T03:52:20.098Z,0.0000
2024-03-26T03:53:21.548Z,0.0000
2024-03-26T03:54:22.772Z,0.0000
2024-03-26T03:55:24.102Z,0.0000
2024-03-26T03:56:25.564Z,0.0000
2024-03-26T03:57:26.805Z,0.0000
2024-03-26T03:58:28.020Z,0.0000
2024-03-26T03:59:29.317Z,0.0000
2024-03-26T04:00:30.554Z,0.0000
2024-03-26T04:01:31.818Z,0.0000
2024-03-26T04:02:33.211Z,0.0000
2024-03-26T04:03:34.664Z,0.0000
2024-03-26T04:04:35.896Z,0.0000
2024-03-26T04:05:37.144Z,0.0000
2024-03-26T04:06:38.448Z,0.0000
2024-03-26T04:07:39.807Z,0.0000
2024-03-26T04:08:41.029Z,0.0000
2024-03-26T04:09:42.320Z,0.0000
2024-03-26T04:10:43.581Z,0.0000
2024-03-26T04:11:44.984Z,0.0000
2024-03-26T04:12:46.326Z,0.0000
2024-03-26T04:13:47.578Z,0.0000
2024-03-26T04:14:48.936Z,0.0000
2024-03-26T04:15:50.343Z,0.0000
2024-03-26T04:16:51.564Z,0.0000
2024-03-26T04:17:52.907Z,0.0000
2024-03-26T04:18:54.179Z,0.0000
2024-03-26T04:19:55.412Z,0.0000
2024-03-26T04:20:56.824Z,0.0000
2024-03-26T04:21:58.115Z,0.0000
2024-03-26T04:22:59.370Z,0.0000
2024-03-26T04:24:00.714Z,0.0000
2024-03-26T04:25:01.964Z,0.0000
2024-03-26T04:26:03.218Z,0.0000
2024-03-26T04:27:04.595Z,0.0000
2024-03-26T04:28:06.031Z,0.0000
2024-03-26T04:29:07.456Z,0.0000
2024-03-26T04:30:08.685Z,0.0000
2024-03-26T04:31:10.024Z,0.0000
2024-03-26T04:32:11.488Z,0.0000
2024-03-26T04:33:12.709Z,0.0000
2024-03-26T04:34:14.036Z,0.0000
2024-03-26T04:35:15.266Z,0.0000
2024-03-26T04:36:16.575Z,0.0000
2024-03-26T04:37:18.021Z,0.0000
2024-03-26T04:38:19.278Z,0.0000
2024-03-26T04:39:20.566Z,0.0000
2024-03-26T04:40:22.020Z,0.0000
2024-03-26T04:41:23.456Z,0.0000
2024-03-26T04:42:24.926Z,0.0000
2024-03-26T04:43:26.317Z,0.0000
2024-03-26T04:44:27.601Z,0.0000
2024-03-26T04:45:28.912Z,0.0000
2024-03-26T04:46:30.126Z,0.0000
2024-03-26T04:47:31.447Z,0.0000
2024-03-26T04:48:32.709Z,0.0000
2024-03-26T04:49:33.932Z,0.0000
2024-03-26T04:50:35.166Z,0.0000
2024-03-26T04:51:36.563Z,0.0000
2024-03-26T04:52:37.818Z,0.0000
2024-03-26T04:53:39.132Z,0.0000
2024-03-26T04:54:40.316Z,0.0000
2024-03-26T04:55:41.598Z,0.0000
2024-03-26T04:56:43.129Z,0.0000
2024-03-26T04:57:44.603Z,0.0000
2024-03-26T04:58:45.983Z,0.0000
2024-03-26T04:59:47.440Z,0.0000
2024-03-26T05:00:48.890Z,0.0000
2024-03-26T05:01:50.113Z,0.0000
2024-03-26T05:02:51.467Z,0.0000
2024-03-26T05:03:52.654Z,0.0000
2024-03-26T05:04:54.028Z,0.0000
2024-03-26T05:05:55.235Z,0.0000
2024-03-26T05:06:56.513Z,0.0000
2024-03-26T05:07:57.966Z,0.0000
2024-03-26T05:08:59.408Z,0.0000
2024-03-26T05:10:00.693Z,0.0000
2024-03-26T05:11:01.981Z,0.0000
2024-03-26T05:12:03.201Z,0.0000
2024-03-26T05:13:04.565Z,0.0000
2024-03-26T05:14:05.831Z,0.0000
2024-03-26T05:15:07.057Z,0.0000
2024-03-26T05:16:08.575Z,0.0000
2024-03-26T05:17:09.818Z,0.0000
2024-03-26T05:18:11.159Z,0.0000
2024-03-26T05:19:12.588Z,0.0000
2024-03-26T05:20:13.819Z,0.0000
2024-03-26T05:21:15.159Z,0.0000
2024-03-26T05:22:16.405Z,0.0000
2024-03-26T05:23:17.703Z,0.0000
2024-03-26T05:24:19.141Z,0.0000
2024-03-26T05:25:20.411Z,0.0000
2024-03-26T05:26:21.694Z,0.0000
2024-03-26T05:27:22.969Z,0.0000
2024-03-26T05:28:24.250Z,0.0000
2024-03-26T05:29:25.508Z,0.0000
2024-03-26T05:30:27.131Z,0.0000
2024-03-26T05:31:28.366Z,0.0000
2024-03-26T05:32:29.784Z,0.0000
2024-03-26T05:33:31.004Z,0.0000
2024-03-26T05:34:32.287Z,0.0000
2024-03-26T05:35:33.689Z,0.0000
2024-03-26T05:36:34.904Z,0.0000
2024-03-26T05:37:36.243Z,0.0000
2024-03-26T05:38:37.698Z,0.0000
2024-03-26T05:39:38.928Z,0.0000
2024-03-26T05:40:40.275Z,0.0000
2024-03-26T05:41:41.671Z,0.0000
2024-03-26T05:42:42.875Z,0.0000
2024-03-26T05:43:42.901Z,0.0000
2024-03-26T05:44:44.153Z,0.0000
2024-03-26T05:45:45.515Z,0.0000
2024-03-26T05:46:47.022Z,0.0000
2024-03-26T05:47:48.239Z,0.0000
2024-03-26T05:48:49.498Z,0.0000
2024-03-26T05:49:50.764Z,0.0000
2024-03-26T05:50:52.143Z,0.0000
2024-03-26T05:51:53.533Z,0.0000
2024-03-26T05:52:54.977Z,0.0000
2024-03-26T05:53:56.425Z,0.0000
2024-03-26T05:54:57.669Z,0.0000
2024-03-26T05:55:58.966Z,0.0000
2024-03-26T05:57:00.258Z,0.0000
2024-03-26T05:58:01.634Z,0.0000
2024-03-26T05:59:02.977Z,0.0000
2024-03-26T06:00:04.296Z,0.0000
2024-03-26T06:01:05.594Z,0.0000
2024-03-26T06:02:06.857Z,0.0000
2024-03-26T06:03:08.179Z,0.0000
2024-03-26T06:04:09.533Z,0.0000
2024-03-26T06:05:10.806Z,0.0000
2024-03-26T06:06:12.080Z,0.0000
2024-03-26T06:07:13.356Z,0.0000
2024-03-26T06:08:14.785Z,0.0000
2024-03-26T06:09:16.421Z,0.0000
2024-03-26T06:10:17.957Z,0.0000
2024-03-26T06:11:19.309Z,0.0000
2024-03-26T06:12:20.543Z,0.0000
2024-03-26T06:13:22.063Z,0.0000
2024-03-26T06:14:23.372Z,0.0000
2024-03-26T06:15:24.748Z,0.0000
2024-03-26T06:16:26.192Z,0.0000
2024-03-26T06:17:27.617Z,0.0000
2024-03-26T06:18:29.062Z,0.0000
2024-03-26T06:19:30.508Z,0.0000
2024-03-26T06:20:31.937Z,0.0000
2024-03-26T06:21:33.388Z,0.0000
2024-03-26T06:22:34.805Z,0.0000
2024-03-26T06:23:36.263Z,0.0000
2024-03-26T06:24:37.687Z,0.0000
2024-03-26T06:25:39.149Z,0.0000
2024-03-26T06:26:40.565Z,0.0000
2024-03-26T06:27:42.028Z,0.0000
2024-03-26T06:28:43.455Z,0.0000
2024-03-26T06:29:44.687Z,0.0000
2024-03-26T06:30:46.327Z,0.0000
2024-03-26T06:31:47.782Z,0.0000
2024-03-26T06:32:49.058Z,0.0000
2024-03-26T06:33:50.455Z,0.0000
2024-03-26T06:34:51.774Z,0.0000
2024-03-26T06:35:53.257Z,0.0000
2024-03-26T06:36:54.662Z,0.0000
2024-03-26T06:37:55.918Z,0.0000
2024-03-26T06:38:57.167Z,0.0000
2024-03-26T06:39:58.469Z,0.0000
2024-03-26T06:40:59.788Z,0.0000
2024-03-26T06:42:01.208Z,0.0000
2024-03-26T06:43:02.459Z,0.0000
2024-03-26T06:44:03.892Z,0.0000
2024-03-26T06:45:05.206Z,0.0000
2024-03-26T06:46:06.677Z,0.0000
2024-03-26T06:47:08.109Z,0.0000
2024-03-26T06:48:09.542Z,0.0000
2024-03-26T06:49:10.781Z,0.0000
2024-03-26T06:50:12.224Z,0.0000
2024-03-26T06:51:13.492Z,0.0000
2024-03-26T06:52:14.960Z,0.0000
2024-03-26T06:53:16.397Z,0.0000
2024-03-26T06:54:17.850Z,0.0000
2024-03-26T06:55:19.275Z,0.0000
2024-03-26T06:56:20.740Z,0.0000
2024-03-26T06:57:22.135Z,0.0000
2024-03-26T06:58:23.593Z,0.0000
2024-03-26T06:59:24.863Z,0.0000
2024-03-26T07:00:26.212Z,0.0000
2024-03-26T07:01:27.629Z,0.0000
2024-03-26T07:02:28.903Z,0.0000
2024-03-26T07:03:30.192Z,0.0000
2024-03-26T07:04:31.637Z,0.0000
2024-03-26T07:05:33.064Z,0.0000
2024-03-26T07:06:34.336Z,0.0000
2024-03-26T07:07:37.913Z,0.0000
2024-03-26T07:08:37.396Z,0.0000
2024-03-26T07:09:38.628Z,0.0000
2024-03-26T07:10:39.962Z,0.0000
2024-03-26T07:11:41.374Z,0.0000
2024-03-26T07:12:42.827Z,0.0000
2024-03-26T07:13:44.081Z,0.0000
2024-03-26T07:14:45.405Z,0.0000
2024-03-26T07:15:46.848Z,0.0000
2024-03-26T07:16:48.272Z,0.0000
2024-03-26T07:17:49.779Z,0.0000
2024-03-26T07:18:52.367Z,0.0000
2024-03-26T07:19:51.642Z,0.0000
2024-03-26T07:20:52.924Z,0.0000
2024-03-26T07:21:54.406Z,0.0000
2024-03-26T07:22:55.644Z,0.0000
2024-03-26T07:23:57.091Z,0.0000
2024-03-26T07:24:58.520Z,0.0000
2024-03-26T07:25:59.986Z,0.0000
2024-03-26T07:27:01.376Z,0.0000
2024-03-26T07:28:02.811Z,0.0000
2024-03-26T07:29:04.251Z,0.0000
2024-03-26T07:30:05.487Z,0.0000
2024-03-26T07:31:06.819Z,0.0000
2024-03-26T07:32:08.084Z,0.0000
2024-03-26T07:33:09.390Z,0.0000
2024-03-26T07:34:10.821Z,0.0000
2024-03-26T07:35:12.306Z,0.0000
2024-03-26T07:36:13.678Z,0.0000
2024-03-26T07:37:15.146Z,0.0000
2024-03-26T07:38:16.564Z,0.0000
2024-03-26T07:39:17.820Z,0.0000
2024-03-26T07:40:19.133Z,0.0000
2024-03-26T07:41:20.576Z,0.0000
2024-03-26T07:42:22.066Z,0.0000
2024-03-26T07:43:24.084Z,0.0000
2024-03-26T07:44:23.598Z,0.0000
2024-03-26T07:45:25.070Z,0.0000
2024-03-26T07:46:26.509Z,0.0000
2024-03-26T07:47:28.020Z,0.0000
2024-03-26T07:48:29.361Z,0.0000
2024-03-26T07:49:30.828Z,0.0000
2024-03-26T07:50:32.109Z,0.0000
2024-03-26T07:51:33.529Z,0.0000
2024-03-26T07:52:34.855Z,0.0000
2024-03-26T07:53:36.271Z,0.0000
2024-03-26T07:54:37.708Z,0.0000
2024-03-26T07:55:39.149Z,0.0000
2024-03-26T07:56:40.591Z,0.0000
2024-03-26T07:57:42.092Z,0.0000
2024-03-26T07:58:43.439Z,0.0000
2024-03-26T07:59:44.987Z,0.0000
2024-03-26T08:00:46.312Z,0.0000
2024-03-26T08:01:47.735Z,0.0000
2024-03-26T08:02:49.205Z,0.0000
2024-03-26T08:03:50.458Z,0.0000
2024-03-26T08:04:51.774Z,0.0000
2024-03-26T08:05:53.260Z,0.0000
2024-03-26T08:06:54.649Z,0.0000
2024-03-26T08:07:55.969Z,0.0000
2024-03-26T08:08:57.274Z,0.0000
2024-03-26T08:09:58.669Z,0.0000
2024-03-26T08:11:00.050Z,0.0000
2024-03-26T08:12:01.576Z,0.0000
2024-03-26T08:13:02.954Z,0.0000
2024-03-26T08:14:04.398Z,0.0000
2024-03-26T08:15:05.745Z,0.0000
2024-03-26T08:16:07.045Z,0.0000
2024-03-26T08:17:08.470Z,0.0000
2024-03-26T08:18:09.851Z,0.0000
2024-03-26T08:19:11.265Z,0.0000
2024-03-26T08:20:12.492Z,0.0000
2024-03-26T08:21:13.844Z,0.0000
2024-03-26T08:22:15.314Z,0.0000
2024-03-26T08:23:16.738Z,0.0000
2024-03-26T08:24:17.996Z,0.0000
2024-03-26T08:25:19.378Z,0.0000
2024-03-26T08:26:20.733Z,0.0000
2024-03-26T08:27:22.183Z,0.0000
2024-03-26T08:28:23.470Z,0.0000
2024-03-26T08:29:24.783Z,0.0000
2024-03-26T08:30:26.327Z,0.0000
2024-03-26T08:31:27.614Z,0.0000
2024-03-26T08:32:28.942Z,0.0000
2024-03-26T08:33:30.219Z,0.0000
2024-03-26T08:34:31.628Z,0.0000
2024-03-26T08:35:33.468Z,0.0000
2024-03-26T08:36:34.842Z,0.0000
2024-03-26T08:37:36.180Z,0.0000
2024-03-26T08:38:37.639Z,0.0000
2024-03-26T08:39:39.069Z,0.0000
2024-03-26T08:40:40.364Z,0.0000
2024-03-26T08:41:41.696Z,0.0000
2024-03-26T08:42:43.136Z,0.0000
2024-03-26T08:43:44.378Z,0.0000
2024-03-26T08:44:45.629Z,0.0000
2024-03-26T08:45:46.921Z,0.0000
2024-03-26T08:46:48.274Z,0.0000
2024-03-26T08:47:49.714Z,0.0000
2024-03-26T08:48:51.142Z,0.0000
2024-03-26T08:49:52.604Z,0.0000
2024-03-26T08:50:54.104Z,0.0000
2024-03-26T08:51:55.465Z,0.0000
2024-03-26T08:52:56.914Z,0.0000
2024-03-26T08:53:58.344Z,0.0000
2024-03-26T08:54:59.798Z,0.0000
2024-03-26T08:56:08.488Z,0.0000
2024-03-26T08:57:02.039Z,0.0000
2024-03-26T08:58:03.480Z,0.0000
2024-03-26T08:59:04.899Z,0.0000
2024-03-26T09:00:06.366Z,0.0000
2024-03-26T09:01:07.821Z,0.0000
2024-03-26T09:02:09.525Z,0.0000
2024-03-26T09:03:10.985Z,0.0000
2024-03-26T09:04:12.402Z,0.0000
2024-03-26T09:05:13.866Z,0.0000
2024-03-26T09:06:15.339Z,0.0000
2024-03-26T09:07:16.758Z,0.0000
2024-03-26T09:08:18.000Z,0.0000
2024-03-26T09:09:19.621Z,0.0000
2024-03-26T09:10:21.060Z,0.0000
2024-03-26T09:11:22.331Z,0.0000
2024-03-26T09:12:23.684Z,0.0000
2024-03-26T09:13:25.069Z,0.0000
2024-03-26T09:14:26.338Z,0.0000
2024-03-26T09:15:27.630Z,0.0000
2024-03-26T09:16:29.098Z,0.0000
2024-03-26T09:17:30.524Z,0.0000
2024-03-26T09:18:31.761Z,0.0000
2024-03-26T09:19:33.112Z,0.0000
2024-03-26T09:20:34.505Z,0.0000
2024-03-26T09:21:35.801Z,0.0000
2024-03-26T09:22:37.055Z,0.0000
2024-03-26T09:24:50.758Z,56.4216
2024-03-26T09:25:47.790Z,56.4913
2024-03-26T09:26:48.404Z,56.6808
2024-03-26T09:27:49.170Z,56.5985
2024-03-26T09:28:49.860Z,55.2322
2024-03-26T09:29:50.442Z,55.1222
2024-03-26T09:30:51.461Z,54.2024
2024-03-26T09:31:52.060Z,54.0118
2024-03-26T09:32:52.790Z,55.2093
2024-03-26T09:33:53.950Z,53.7112
2024-03-26T09:34:54.994Z,53.0367
2024-03-26T09:35:55.602Z,50.1462
2024-03-26T09:36:56.359Z,49.0042
2024-03-26T09:37:57.175Z,49.0494
2024-03-26T09:39:07.208Z,48.5736
2024-03-26T09:39:59.936Z,48.4136
2024-03-26T09:41:00.481Z,47.8123
2024-03-26T09:42:01.097Z,47.6611
2024-03-26T09:43:01.763Z,48.7648
2024-03-26T09:44:02.514Z,52.7264
2024-03-26T09:45:06.091Z,54.4947
2024-03-26T09:46:03.440Z,55.9051
2024-03-26T09:47:04.113Z,54.2800
2024-03-26T09:48:04.800Z,54.2653
2024-03-26T09:49:05.570Z,54.8461
2024-03-26T09:50:06.345Z,54.3273
2024-03-26T09:51:07.148Z,55.2687
2024-03-26T09:52:07.983Z,55.6626
2024-03-26T09:53:08.570Z,55.1359
2024-03-26T09:54:09.320Z,55.2514
2024-03-26T09:55:10.077Z,56.0966
2024-03-26T09:56:10.709Z,54.4040
2024-03-26T09:57:11.407Z,55.1266
2024-03-26T09:58:12.214Z,54.2754
2024-03-26T09:59:12.951Z,53.2735
2024-03-26T10:00:13.737Z,53.6139
2024-03-26T10:01:14.503Z,52.9203
2024-03-26T10:02:15.100Z,54.4511
2024-03-26T10:03:15.897Z,53.6042
2024-03-26T10:04:16.581Z,54.4538
2024-03-26T10:05:17.373Z,54.1053
2024-03-26T10:06:17.979Z,55.0868
2024-03-26T10:07:18.671Z,55.7740
2024-03-26T10:08:19.515Z,53.8541
2024-03-26T10:09:20.277Z,54.0913
2024-03-26T10:10:20.884Z,55.2533
2024-03-26T10:11:21.601Z,54.5755
2024-03-26T10:12:22.336Z,55.4057
2024-03-26T10:13:22.924Z,54.2109
2024-03-26T10:14:23.614Z,55.2288
2024-03-26T10:15:24.411Z,54.5740
2024-03-26T10:16:25.229Z,54.3768
2024-03-26T10:17:25.825Z,55.1738
2024-03-26T10:18:26.908Z,54.1239
2024-03-26T10:19:27.620Z,54.0982
2024-03-26T10:20:28.425Z,52.3184
2024-03-26T10:21:29.041Z,53.6156
2024-03-26T10:22:29.767Z,54.5365
2024-03-26T10:23:30.493Z,55.9949
2024-03-26T10:24:31.256Z,54.4769
2024-03-26T10:25:31.814Z,54.5374
2024-03-26T10:26:32.597Z,55.6238
2024-03-26T10:27:33.386Z,55.0700
2024-03-26T10:28:33.989Z,54.4032
2024-03-26T10:29:34.725Z,54.2634
2024-03-26T10:30:35.457Z,54.9716
2024-03-26T10:31:36.142Z,54.9757
2024-03-26T10:32:36.753Z,54.6022
2024-03-26T10:33:37.511Z,55.5486
2024-03-26T10:34:38.297Z,56.3475
2024-03-26T10:35:38.892Z,57.0271
2024-03-26T10:36:39.670Z,56.8362
2024-03-26T10:37:40.422Z,57.3369
2024-03-26T10:38:45.451Z,56.5768
2024-03-26T10:39:42.928Z,55.8928
2024-03-26T10:40:43.538Z,55.5208
2024-03-26T10:41:44.254Z,55.0460
2024-03-26T10:42:45.004Z,56.6018
2024-03-26T10:43:45.591Z,55.5371
2024-03-26T10:44:46.591Z,56.8801
2024-03-26T10:45:59.986Z,57.4667
2024-03-26T10:46:49.527Z,56.6482
2024-03-26T10:47:50.284Z,57.5043
2024-03-26T10:48:57.451Z,57.9909
2024-03-26T10:49:52.818Z,58.9719
2024-03-26T10:50:53.422Z,58.3109
2024-03-26T10:51:54.203Z,56.8852
2024-03-26T10:52:54.918Z,57.6504
2024-03-26T10:53:55.554Z,58.3247
2024-03-26T10:54:56.322Z,58.8056
2024-03-26T10:55:57.963Z,57.2718
2024-03-26T10:56:58.596Z,57.1203
2024-03-26T10:57:59.221Z,57.1736
2024-03-26T10:58:59.843Z,56.7938
2024-03-26T11:00:00.544Z,57.1853
2024-03-26T11:01:01.323Z,57.2938
2024-03-26T11:02:01.968Z,56.8136
2024-03-26T11:03:02.623Z,57.1773
2024-03-26T11:04:03.422Z,57.4029
2024-03-26T11:05:04.192Z,56.2843
2024-03-26T11:06:04.803Z,53.3952
2024-03-26T11:07:05.487Z,51.6691
2024-03-26T11:08:07.653Z,51.5270
2024-03-26T11:09:07.745Z,50.9231
2024-03-26T11:10:08.518Z,49.9201
2024-03-26T11:11:09.317Z,50.2487
2024-03-26T11:12:09.915Z,50.6215
2024-03-26T11:13:10.975Z,50.6468
2024-03-26T11:14:11.676Z,47.8410
2024-03-26T11:15:12.296Z,47.4700
2024-03-26T11:16:13.097Z,48.1118
2024-03-26T11:17:13.798Z,47.1881
2024-03-26T11:18:14.398Z,45.3319
2024-03-26T11:19:15.096Z,42.8824
2024-03-26T11:20:15.708Z,42.5164
2024-03-26T11:21:16.379Z,43.9342
2024-03-26T11:22:16.952Z,45.5602
2024-03-26T11:23:17.670Z,44.8170
2024-03-26T11:24:18.469Z,45.2046
2024-03-26T11:25:19.263Z,45.5078
2024-03-26T11:26:20.033Z,44.6486
2024-03-26T11:27:20.856Z,43.6274
2024-03-26T11:28:21.447Z,44.0292
2024-03-26T11:29:22.222Z,44.8123
2024-03-26T11:30:22.914Z,45.8210
2024-03-26T11:31:23.729Z,43.6210
2024-03-26T11:32:25.389Z,43.3934
2024-03-26T11:34:00.212Z,44.5099
2024-03-26T11:35:00.776Z,42.5376
2024-03-26T11:36:01.571Z,41.0207
2024-03-26T11:37:02.296Z,39.1619
2024-03-26T11:38:03.582Z,39.2579
2024-03-26T11:39:04.581Z,39.4543
2024-03-26T11:40:05.329Z,39.9103
2024-03-26T11:41:07.900Z,38.8444
2024-03-26T11:42:06.381Z,38.6893
2024-03-26T11:43:07.055Z,39.6511
2024-03-26T11:44:07.679Z,38.3828
2024-03-26T11:45:08.442Z,39.8977
2024-03-26T11:46:09.152Z,40.0859
2024-03-26T11:47:09.963Z,40.1582
2024-03-26T11:48:10.767Z,39.5773
2024-03-26T11:49:11.585Z,42.9830
2024-03-26T11:50:12.202Z,44.1627
2024-03-26T11:51:12.862Z,43.9287
2024-03-26T11:52:13.709Z,42.7576
2024-03-26T11:53:14.429Z,41.7697
2024-03-26T11:54:15.050Z,44.3172
2024-03-26T11:55:15.816Z,45.3512
2024-03-26T11:56:16.559Z,45.1030
2024-03-26T11:57:17.170Z,43.2776
2024-03-26T11:58:17.817Z,43.8396
2024-03-26T11:59:18.643Z,42.1747
2024-03-26T12:00:19.413Z,42.3769
2024-03-26T12:01:20.007Z,42.2130
2024-03-26T12:02:20.715Z,43.1549
2024-03-26T12:03:21.482Z,44.1011
2024-03-26T12:04:22.115Z,43.5561
2024-03-26T12:05:22.750Z,42.1174
2024-03-26T12:06:23.581Z,41.3883
2024-03-26T12:07:24.124Z,40.7141
2024-03-26T12:08:24.867Z,40.5510
2024-03-26T12:09:25.456Z,40.3169
2024-03-26T12:10:26.195Z,39.6728
2024-03-26T12:11:26.925Z,38.7430
2024-03-26T12:12:27.487Z,39.7763
2024-03-26T12:13:28.196Z,38.8450
2024-03-26T12:14:29.045Z,38.5774
2024-03-26T12:15:29.644Z,38.5880
2024-03-26T12:16:30.333Z,37.7165
2024-03-26T12:17:31.112Z,37.7964
2024-03-26T12:18:31.984Z,38.2248
2024-03-26T12:19:32.717Z,40.2904
2024-03-26T12:20:33.290Z,40.4341
2024-03-26T12:21:34.072Z,39.2732
2024-03-26T12:22:34.848Z,39.6655
2024-03-26T12:23:35.638Z,39.1340
2024-03-26T12:24:36.412Z,39.4165
2024-03-26T12:25:37.035Z,37.9588
2024-03-26T12:26:37.618Z,40.9847
2024-03-26T12:27:38.218Z,41.0400
2024-03-26T12:28:38.986Z,40.5164
2024-03-26T12:29:39.775Z,40.5422
2024-03-26T12:30:40.549Z,38.6741
2024-03-26T12:31:41.317Z,38.2129
2024-03-26T12:32:41.945Z,39.2329
2024-03-26T12:33:44.692Z,37.9039
2024-03-26T12:34:43.808Z,36.8333
2024-03-26T12:35:44.477Z,37.5088
2024-03-26T12:36:45.110Z,36.8986
2024-03-26T12:37:45.875Z,37.9951
2024-03-26T12:38:46.653Z,38.2918